createdAt,value
2019-01-15T00:00:28.538Z,1.50
2019-01-15T00:02:56.115Z,1.50
2019-01-15T00:05:23.624Z,1.50
2019-01-15T00:07:51.101Z,1.50
2019-01-15T00:10:18.731Z,1.60
2019-01-15T00:12:46.152Z,1.60
2019-01-15T00:15:13.970Z,1.80
2019-01-15T00:17:41.405Z,1.90
2019-01-15T00:20:08.949Z,1.80
2019-01-15T00:22:36.474Z,1.90
2019-01-15T00:25:04.913Z,1.70
2019-01-15T00:27:32.458Z,1.80
2019-01-15T00:29:59.982Z,1.90
2019-01-15T00:32:27.468Z,1.80
2019-01-15T00:34:54.948Z,1.90
2019-01-15T00:37:22.357Z,2.00
2019-01-15T00:39:49.807Z,1.80
2019-01-15T00:42:17.288Z,1.70
2019-01-15T00:44:44.789Z,1.80
2019-01-15T00:47:12.189Z,1.80
2019-01-15T00:49:39.691Z,1.80
2019-01-15T00:52:07.093Z,1.80
2019-01-15T00:54:34.604Z,2.00
2019-01-15T00:57:02.029Z,2.00
2019-01-15T00:59:29.555Z,2.00
2019-01-15T01:01:57.017Z,1.90
2019-01-15T01:04:24.497Z,2.10
2019-01-15T01:06:52.014Z,2.10
2019-01-15T01:09:19.538Z,2.30
2019-01-15T01:11:47.103Z,2.30
2019-01-15T01:14:14.676Z,2.30
2019-01-15T01:16:42.081Z,2.10
2019-01-15T01:19:09.598Z,2.20
2019-01-15T01:21:37.255Z,2.30
2019-01-15T01:24:04.671Z,2.20
2019-01-15T01:26:32.262Z,2.40
2019-01-15T01:29:08.945Z,2.30
2019-01-15T01:31:36.270Z,2.30
2019-01-15T01:34:03.785Z,2.50
2019-01-15T01:36:31.229Z,2.40
2019-01-15T01:39:07.318Z,2.30
2019-01-15T01:41:35.147Z,2.30
2019-01-15T01:44:02.589Z,2.10
2019-01-15T01:46:29.968Z,2.10
2019-01-15T01:48:57.521Z,2.20
2019-01-15T01:51:24.972Z,2.20
2019-01-15T01:53:52.731Z,2.40
2019-01-15T01:56:20.221Z,2.30
2019-01-15T01:58:48.064Z,2.40
2019-01-15T02:01:16.323Z,2.40
2019-01-15T02:03:43.793Z,2.50
2019-01-15T02:06:11.320Z,2.50
2019-01-15T02:08:38.905Z,2.40
2019-01-15T02:11:06.461Z,2.60
2019-01-15T02:13:33.980Z,2.60
2019-01-15T02:16:01.428Z,2.50
2019-01-15T02:18:29.288Z,2.60
2019-01-15T02:20:56.779Z,2.50
2019-01-15T02:23:24.628Z,2.50
2019-01-15T02:25:52.088Z,2.60
2019-01-15T02:28:19.604Z,2.70
2019-01-15T02:30:47.130Z,2.60
2019-01-15T02:33:14.599Z,2.40
2019-01-15T02:35:42.654Z,2.30
2019-01-15T02:38:10.458Z,2.40
2019-01-15T02:40:37.929Z,2.40
2019-01-15T02:43:05.453Z,2.30
2019-01-15T02:45:33.449Z,2.20
2019-01-15T02:48:00.906Z,2.40
2019-01-15T02:50:28.779Z,2.50
2019-01-15T02:52:56.414Z,2.30
2019-01-15T02:55:24.041Z,2.50
2019-01-15T02:57:51.540Z,2.50
2019-01-15T03:00:21.043Z,2.50
2019-01-15T03:02:48.866Z,2.70
2019-01-15T03:05:16.769Z,2.50
2019-01-15T03:07:44.495Z,2.30
2019-01-15T03:10:13.545Z,2.20
2019-01-15T03:12:42.842Z,2.00
2019-01-15T03:15:10.294Z,2.00
2019-01-15T03:17:37.700Z,2.00
2019-01-15T03:20:05.913Z,2.10
2019-01-15T03:22:33.354Z,2.10
2019-01-15T03:25:00.900Z,2.30
2019-01-15T03:27:28.535Z,2.30
2019-01-15T03:29:56.038Z,2.40
2019-01-15T03:32:23.493Z,2.50
2019-01-15T03:34:51.002Z,2.50
2019-01-15T03:37:18.402Z,2.40
2019-01-15T03:39:45.900Z,2.50
2019-01-15T03:42:13.393Z,2.50
2019-01-15T03:44:41.236Z,2.50
2019-01-15T03:47:08.777Z,2.50
2019-01-15T03:49:36.242Z,2.60
2019-01-15T03:52:04.416Z,2.70
2019-01-15T03:54:31.890Z,2.70
2019-01-15T03:56:59.648Z,2.70
2019-01-15T03:59:27.428Z,2.80
2019-01-15T04:01:55.599Z,2.70
2019-01-15T04:04:22.954Z,2.80
2019-01-15T04:06:50.416Z,2.80
2019-01-15T04:09:18.393Z,2.70
2019-01-15T04:11:45.929Z,2.70
2019-01-15T04:14:13.886Z,2.80
2019-01-15T04:16:41.665Z,2.70
2019-01-15T04:19:09.298Z,2.60
2019-01-15T04:21:36.684Z,2.60
2019-01-15T04:24:04.102Z,2.70
2019-01-15T04:26:31.534Z,2.70
2019-01-15T04:28:59.001Z,2.70
2019-01-15T04:31:27.099Z,2.70
2019-01-15T04:33:54.533Z,2.90
2019-01-15T04:36:22.071Z,3.00
2019-01-15T04:38:49.554Z,2.80
2019-01-15T04:41:17.099Z,2.70
2019-01-15T04:43:44.612Z,2.70
2019-01-15T04:46:12.390Z,2.80
2019-01-15T04:48:39.960Z,2.70
2019-01-15T04:51:07.953Z,2.60
2019-01-15T04:53:35.729Z,2.60
2019-01-15T04:56:03.324Z,2.60
2019-01-15T04:58:31.028Z,2.60
2019-01-15T05:00:58.782Z,2.70
2019-01-15T05:03:26.326Z,2.60
2019-01-15T05:05:53.813Z,2.50
2019-01-15T05:08:21.589Z,2.50
2019-01-15T05:10:51.135Z,2.40
2019-01-15T05:13:19.018Z,2.60
2019-01-15T05:15:46.525Z,2.70
2019-01-15T05:18:14.029Z,2.80
2019-01-15T05:20:41.558Z,2.80
2019-01-15T05:23:09.704Z,2.80
2019-01-15T05:25:37.349Z,2.90
2019-01-15T05:28:05.187Z,2.90
2019-01-15T05:30:32.872Z,2.80
2019-01-15T05:33:00.323Z,2.60
2019-01-15T05:35:27.871Z,2.50
2019-01-15T05:37:55.228Z,2.60
2019-01-15T05:40:22.672Z,2.50
2019-01-15T05:42:50.220Z,2.50
2019-01-15T05:45:31.445Z,2.50
2019-01-15T05:48:03.483Z,2.70
2019-01-15T05:50:38.020Z,2.60
2019-01-15T05:53:05.566Z,2.60
2019-01-15T05:55:33.104Z,2.60
2019-01-15T05:58:00.985Z,2.50
2019-01-15T06:00:28.494Z,2.50
2019-01-15T06:02:56.410Z,2.70
2019-01-15T06:05:23.997Z,2.50
2019-01-15T06:07:51.569Z,2.60
2019-01-15T06:10:19.097Z,2.50
2019-01-15T06:12:46.733Z,2.40
2019-01-15T06:15:14.292Z,2.50
2019-01-15T06:17:41.858Z,2.60
2019-01-15T06:20:11.356Z,2.70
2019-01-15T06:22:39.301Z,2.60
2019-01-15T06:25:07.630Z,2.50
2019-01-15T06:27:35.102Z,2.40
2019-01-15T06:30:04.128Z,2.40
2019-01-15T06:32:32.435Z,2.40
2019-01-15T06:35:00.307Z,2.20
2019-01-15T06:37:28.240Z,2.30
2019-01-15T06:39:55.831Z,2.20
2019-01-15T06:42:23.597Z,2.10
2019-01-15T06:44:51.430Z,2.20
2019-01-15T06:47:19.190Z,2.30
2019-01-15T06:49:46.792Z,2.50
2019-01-15T06:52:14.301Z,2.40
2019-01-15T06:54:42.144Z,2.30
2019-01-15T06:57:09.616Z,2.20
2019-01-15T06:59:37.233Z,2.00
2019-01-15T07:02:04.943Z,2.00
2019-01-15T07:04:32.910Z,1.90
2019-01-15T07:07:00.463Z,1.90
2019-01-15T07:09:28.114Z,1.80
2019-01-15T07:11:55.620Z,1.80
2019-01-15T07:14:23.027Z,1.90
2019-01-15T07:16:50.817Z,1.80
2019-01-15T07:19:18.274Z,1.90
2019-01-15T07:21:46.003Z,1.80
2019-01-15T07:24:13.684Z,1.80
2019-01-15T07:26:41.199Z,1.80
2019-01-15T07:29:08.576Z,1.80
2019-01-15T07:31:36.032Z,1.90
2019-01-15T07:34:03.439Z,1.90
2019-01-15T07:36:31.772Z,1.80
2019-01-15T07:38:59.253Z,1.80
2019-01-15T07:41:26.758Z,1.90
2019-01-15T07:43:54.679Z,2.00
2019-01-15T07:46:22.153Z,2.00
2019-01-15T07:48:49.712Z,2.00
2019-01-15T07:51:17.481Z,2.00
2019-01-15T07:53:44.881Z,2.00
2019-01-15T07:56:13.305Z,2.10
2019-01-15T07:58:40.721Z,2.30
2019-01-15T08:01:08.291Z,2.20
2019-01-15T08:03:35.825Z,2.20
2019-01-15T08:06:03.748Z,2.20
2019-01-15T08:08:31.257Z,2.10
2019-01-15T08:10:58.783Z,2.10
2019-01-15T08:13:26.781Z,2.20
2019-01-15T08:15:54.307Z,2.20
2019-01-15T08:18:21.746Z,2.40
2019-01-15T08:20:49.282Z,2.50
2019-01-15T08:23:16.987Z,2.60
2019-01-15T08:25:44.539Z,2.60
2019-01-15T08:28:12.357Z,2.50
2019-01-15T08:30:39.821Z,2.50
2019-01-15T08:33:07.356Z,2.50
2019-01-15T08:35:34.984Z,2.50
2019-01-15T08:38:02.945Z,2.50
2019-01-15T08:40:30.799Z,2.70
2019-01-15T08:42:58.152Z,2.70
2019-01-15T08:45:25.591Z,2.60
2019-01-15T08:48:01.498Z,2.70
2019-01-15T08:50:29.454Z,2.70
2019-01-15T08:52:57.154Z,2.80
2019-01-15T08:55:24.735Z,2.70
2019-01-15T08:57:53.372Z,2.70
2019-01-15T09:00:21.743Z,2.70
2019-01-15T09:02:49.575Z,2.80
2019-01-15T09:05:17.219Z,2.80
2019-01-15T09:07:44.731Z,2.90
2019-01-15T09:10:13.139Z,2.90
2019-01-15T09:12:40.769Z,3.10
2019-01-15T09:15:09.999Z,3.00
2019-01-15T09:17:37.655Z,3.10
2019-01-15T09:20:07.816Z,3.10
2019-01-15T09:22:35.705Z,3.10
2019-01-15T09:25:03.789Z,3.00
2019-01-15T09:27:31.596Z,3.00
2019-01-15T09:29:59.527Z,3.00
2019-01-15T09:32:27.145Z,3.10
2019-01-15T09:34:54.961Z,3.30
2019-01-15T09:37:22.642Z,3.40
2019-01-15T09:39:50.171Z,3.60
2019-01-15T09:42:17.835Z,3.70
2019-01-15T09:44:45.763Z,3.80
2019-01-15T09:47:13.334Z,3.70
2019-01-15T09:49:40.889Z,3.60
2019-01-15T09:52:12.962Z,3.80
2019-01-15T09:54:37.796Z,4.10
2019-01-15T09:57:05.808Z,4.00
2019-01-15T09:59:33.452Z,4.00
2019-01-15T10:02:01.335Z,4.20
2019-01-15T10:04:28.954Z,4.10
2019-01-15T10:06:56.593Z,3.90
2019-01-15T10:09:24.079Z,4.10
2019-01-15T10:11:51.915Z,4.10
2019-01-15T10:14:19.673Z,4.20
2019-01-15T10:16:47.161Z,4.40
2019-01-15T10:19:15.407Z,4.20
2019-01-15T10:21:43.506Z,4.20
2019-01-15T10:24:10.987Z,4.30
2019-01-15T10:26:38.806Z,4.10
2019-01-15T10:29:06.287Z,4.00
2019-01-15T10:32:25.844Z,3.90
2019-01-15T10:34:54.170Z,3.90
2019-01-15T10:37:21.773Z,3.80
2019-01-15T10:39:49.281Z,3.60
2019-01-15T10:42:16.761Z,3.70
2019-01-15T10:44:48.602Z,3.60
2019-01-15T10:47:14.384Z,3.80
2019-01-15T10:49:41.807Z,3.50
2019-01-15T10:52:09.367Z,3.60
2019-01-15T10:54:36.878Z,3.70
2019-01-15T10:57:04.862Z,3.70
2019-01-15T10:59:32.340Z,3.80
2019-01-15T11:01:59.774Z,3.70
2019-01-15T11:04:27.538Z,3.50
2019-01-15T11:06:55.773Z,3.40
2019-01-15T11:09:23.199Z,3.40
2019-01-15T11:11:50.685Z,3.50
2019-01-15T11:14:19.159Z,3.50
2019-01-15T11:16:46.668Z,3.50
2019-01-15T11:19:14.899Z,3.80
2019-01-15T11:21:42.679Z,3.70
2019-01-15T11:24:10.941Z,3.90
2019-01-15T11:26:38.406Z,3.80
2019-01-15T11:29:05.947Z,3.80
2019-01-15T11:31:33.751Z,3.70
2019-01-15T11:34:01.277Z,3.70
2019-01-15T11:36:28.781Z,3.80
2019-01-15T11:38:56.339Z,3.80
2019-01-15T11:41:24.142Z,3.80
2019-01-15T11:43:51.982Z,3.80
2019-01-15T11:46:19.715Z,3.80
2019-01-15T11:48:47.138Z,3.70
2019-01-15T11:51:14.691Z,3.80
2019-01-15T11:53:42.492Z,3.90
2019-01-15T11:56:10.218Z,3.80
2019-01-15T11:58:38.145Z,4.00
2019-01-15T12:01:15.694Z,4.00
2019-01-15T12:04:01.337Z,4.10
2019-01-15T12:07:07.200Z,4.10
2019-01-15T12:09:54.622Z,4.00
2019-01-15T12:12:44.765Z,4.10
2019-01-15T12:15:34.037Z,4.00
2019-01-15T12:18:29.538Z,4.10
2019-01-15T12:21:17.177Z,4.20
2019-01-15T12:24:03.296Z,4.40
2019-01-15T12:26:43.536Z,4.30
2019-01-15T12:29:19.326Z,4.30
2019-01-15T12:32:03.957Z,4.10
2019-01-15T12:34:50.505Z,4.00
2019-01-15T12:37:40.975Z,3.90
2019-01-15T12:40:28.488Z,4.00
2019-01-15T12:43:24.396Z,3.80
2019-01-15T12:46:17.672Z,3.80
2019-01-15T12:49:20.066Z,3.80
2019-01-15T12:52:07.165Z,3.80
2019-01-15T12:54:46.872Z,3.80
2019-01-15T12:57:29.330Z,3.80
2019-01-15T13:00:20.529Z,3.80
2019-01-15T13:03:06.266Z,3.70
2019-01-15T13:06:05.359Z,3.70
2019-01-15T13:08:52.366Z,3.70
2019-01-15T13:11:39.323Z,3.80
2019-01-15T13:14:29.844Z,3.80
2019-01-15T13:17:35.204Z,3.70
2019-01-15T13:20:40.915Z,3.60
2019-01-15T13:23:29.277Z,3.70
2019-01-15T13:26:25.274Z,3.90
2019-01-15T13:29:08.487Z,3.80
2019-01-15T13:31:44.569Z,3.80
2019-01-15T13:34:22.211Z,3.70
2019-01-15T13:37:24.676Z,3.70
2019-01-15T13:40:02.848Z,3.70
2019-01-15T13:42:53.072Z,3.70
2019-01-15T13:46:00.695Z,3.50
2019-01-15T13:48:43.142Z,3.50
2019-01-15T13:51:22.742Z,3.40
2019-01-15T13:54:12.791Z,3.50
2019-01-15T13:56:50.948Z,3.50
2019-01-15T13:59:40.710Z,3.60
2019-01-15T14:02:39.683Z,3.50
2019-01-15T14:05:29.999Z,3.70
2019-01-15T14:08:16.991Z,3.70
2019-01-15T14:11:02.924Z,3.60
2019-01-15T14:13:49.160Z,3.70
2019-01-15T14:16:43.641Z,3.60
2019-01-15T14:19:30.729Z,3.50
2019-01-15T14:22:20.427Z,3.60
2019-01-15T14:25:07.649Z,3.60
2019-01-15T14:27:57.733Z,3.60
2019-01-15T14:30:51.043Z,3.50
2019-01-15T14:33:33.207Z,3.60
2019-01-15T14:36:29.024Z,3.50
2019-01-15T14:39:27.913Z,3.60
2019-01-15T14:42:11.447Z,3.60
2019-01-15T14:44:58.371Z,3.60
2019-01-15T14:47:44.296Z,3.60
2019-01-15T14:50:36.369Z,3.50
2019-01-15T14:53:23.421Z,3.70
2019-01-15T14:56:22.826Z,3.50
2019-01-15T14:59:08.602Z,3.40
2019-01-15T15:02:03.177Z,3.20
2019-01-15T15:04:59.408Z,3.30
2019-01-15T15:07:55.453Z,3.40
2019-01-15T15:10:51.551Z,3.50
2019-01-15T15:13:37.378Z,3.60
2019-01-15T15:16:27.314Z,3.60
2019-01-15T15:19:02.100Z,3.80
2019-01-15T15:21:53.031Z,3.80
2019-01-15T15:24:35.959Z,3.60
2019-01-15T15:27:25.866Z,3.60
2019-01-15T15:30:15.893Z,3.60
2019-01-15T15:33:09.155Z,3.50
2019-01-15T15:36:00.355Z,3.60
2019-01-15T15:38:47.625Z,3.60
2019-01-15T15:41:33.598Z,3.60
2019-01-15T15:44:20.129Z,3.70
2019-01-15T15:47:10.065Z,3.70
2019-01-15T15:49:53.726Z,3.70
2019-01-15T15:52:34.977Z,3.80
2019-01-15T15:55:22.893Z,3.80
2019-01-15T15:58:18.900Z,3.80
2019-01-15T16:01:20.139Z,3.80
2019-01-15T16:04:04.937Z,3.80
2019-01-15T16:06:55.012Z,3.70
2019-01-15T16:09:53.964Z,3.70
2019-01-15T16:12:43.994Z,3.70
2019-01-15T16:15:36.869Z,3.90
2019-01-15T16:18:30.341Z,3.80
2019-01-15T16:21:20.232Z,3.90
2019-01-15T16:24:19.458Z,4.10
2019-01-15T16:27:05.364Z,4.10
2019-01-15T16:29:50.871Z,4.00
2019-01-15T16:32:40.457Z,4.20
2019-01-15T16:35:26.093Z,4.30
2019-01-15T16:38:24.837Z,4.30
2019-01-15T16:41:21.761Z,4.40
2019-01-15T16:44:11.545Z,4.60
2019-01-15T16:47:10.691Z,4.70
2019-01-15T16:50:02.084Z,4.40
2019-01-15T16:52:54.251Z,4.40
2019-01-15T16:55:46.973Z,4.40
2019-01-15T16:58:39.903Z,4.40
2019-01-15T17:01:33.627Z,4.20
2019-01-15T17:04:33.255Z,4.30
2019-01-15T17:07:18.887Z,4.30
2019-01-15T17:10:06.318Z,4.30
2019-01-15T17:12:59.364Z,4.40
2019-01-15T17:15:58.215Z,4.60
2019-01-15T17:18:42.903Z,4.40
2019-01-15T17:21:38.781Z,4.40
2019-01-15T17:24:25.152Z,4.30
2019-01-15T17:27:12.137Z,4.30
2019-01-15T17:29:57.963Z,4.40
2019-01-15T17:32:57.093Z,4.40
2019-01-15T17:35:46.832Z,4.50
2019-01-15T17:38:32.433Z,4.40
2019-01-15T17:41:18.377Z,4.40
2019-01-15T17:44:10.249Z,4.40
2019-01-15T17:46:57.484Z,4.50
2019-01-15T17:49:38.530Z,4.40
2019-01-15T17:52:24.120Z,4.30
2019-01-15T17:55:10.116Z,4.40
2019-01-15T17:57:57.898Z,4.50
2019-01-15T18:01:08.996Z,4.50
2019-01-15T18:04:11.004Z,4.50
2019-01-15T18:07:10.162Z,4.60
2019-01-15T18:09:56.330Z,4.70
2019-01-15T18:13:01.351Z,4.60
2019-01-15T18:15:54.263Z,4.60
2019-01-15T18:18:44.163Z,4.50
2019-01-15T18:21:29.666Z,4.40
2019-01-15T18:24:04.527Z,4.50
2019-01-15T18:26:51.644Z,4.50
2019-01-15T18:29:34.120Z,4.60
2019-01-15T18:32:19.966Z,4.60
2019-01-15T18:35:10.018Z,4.70
2019-01-15T18:38:00.063Z,4.70
2019-01-15T18:40:47.478Z,4.60
2019-01-15T18:43:34.508Z,4.70
2019-01-15T18:46:27.564Z,4.70
2019-01-15T18:49:12.844Z,4.60
2019-01-15T18:51:56.196Z,4.50
2019-01-15T18:54:52.058Z,4.40
2019-01-15T18:57:44.142Z,4.30
2019-01-15T19:00:30.984Z,4.50
2019-01-15T19:03:24.115Z,4.60
2019-01-15T19:06:11.564Z,4.60
2019-01-15T19:08:58.684Z,4.60
2019-01-15T19:11:34.097Z,4.60
2019-01-15T19:14:24.422Z,4.60
2019-01-15T19:17:17.343Z,4.80
2019-01-15T19:19:53.541Z,4.80
2019-01-15T19:22:53.098Z,4.80
2019-01-15T19:25:46.159Z,4.70
2019-01-15T19:28:55.389Z,4.80
2019-01-15T19:31:46.531Z,4.70
2019-01-15T19:34:36.463Z,4.50
2019-01-15T19:37:26.211Z,4.40
2019-01-15T19:40:19.844Z,4.50
2019-01-15T19:43:05.615Z,4.80
2019-01-15T19:45:57.449Z,4.80
2019-01-15T19:48:43.583Z,4.90
2019-01-15T19:51:42.851Z,5.00
2019-01-15T19:54:33.063Z,4.90
2019-01-15T19:57:09.627Z,4.80
2019-01-15T20:00:03.654Z,4.70
2019-01-15T20:02:50.704Z,4.80
2019-01-15T20:05:37.150Z,4.80
2019-01-15T20:08:16.818Z,4.70
2019-01-15T20:14:25.780Z,4.70
2019-01-15T20:17:04.231Z,4.80
2019-01-15T20:19:52.658Z,4.60
2019-01-15T20:22:40.044Z,4.70
2019-01-15T20:25:26.389Z,4.70
2019-01-15T20:28:11.796Z,4.80
2019-01-15T20:30:57.631Z,4.80
2019-01-15T20:33:51.789Z,4.80
2019-01-15T20:36:37.411Z,4.80
2019-01-15T20:39:32.739Z,4.70
2019-01-15T20:42:29.206Z,4.80
2019-01-15T20:45:16.348Z,4.70
2019-01-15T20:48:06.749Z,4.80
2019-01-15T20:51:03.938Z,4.70
2019-01-15T20:53:43.250Z,4.70
2019-01-15T20:56:43.201Z,4.70
2019-01-15T20:59:29.094Z,4.70
2019-01-15T21:02:28.842Z,4.80
2019-01-15T21:05:16.332Z,5.10
2019-01-15T21:08:03.751Z,4.90
2019-01-15T21:10:56.535Z,4.90
2019-01-15T21:13:49.227Z,4.90
2019-01-15T21:16:36.487Z,4.90
2019-01-15T21:19:23.603Z,5.00
2019-01-15T21:22:09.557Z,4.90
2019-01-15T21:24:49.855Z,4.90
2019-01-15T21:27:36.361Z,4.90
2019-01-15T21:30:22.745Z,4.90
2019-01-15T21:33:15.805Z,4.90
2019-01-15T21:35:57.623Z,4.90
2019-01-15T21:38:37.685Z,4.90
2019-01-15T21:41:27.840Z,4.80
2019-01-15T21:44:22.545Z,4.70
2019-01-15T21:47:15.543Z,4.80
2019-01-15T21:50:18.021Z,4.90
2019-01-15T21:53:07.778Z,4.90
2019-01-15T21:55:51.696Z,4.80
2019-01-15T21:58:41.818Z,4.70
2019-01-15T22:01:27.712Z,4.70
2019-01-15T22:04:29.934Z,4.80
2019-01-15T22:07:25.801Z,4.90
2019-01-15T22:10:10.444Z,4.90
2019-01-15T22:13:09.746Z,5.00
2019-01-15T22:15:51.203Z,5.00
2019-01-15T22:18:36.446Z,4.90
2019-01-15T22:21:38.749Z,4.90
2019-01-15T22:24:29.195Z,4.90
2019-01-15T22:27:19.277Z,4.80
2019-01-15T22:30:05.112Z,4.80
2019-01-15T22:33:10.187Z,4.80
2019-01-15T22:35:57.779Z,5.00
2019-01-15T22:38:43.808Z,5.00
2019-01-15T22:41:36.929Z,5.00
2019-01-15T22:44:23.921Z,5.10
2019-01-15T22:47:10.864Z,5.00
2019-01-15T22:50:04.085Z,5.10
2019-01-15T22:52:53.978Z,5.00
2019-01-15T22:55:59.369Z,5.00
2019-01-15T22:58:45.187Z,5.00
2019-01-15T23:01:25.148Z,5.10
2019-01-15T23:04:12.201Z,5.00
2019-01-15T23:07:17.892Z,4.80
2019-01-15T23:10:13.503Z,4.80
2019-01-15T23:12:48.198Z,4.60
2019-01-15T23:15:34.276Z,4.70
2019-01-15T23:18:25.184Z,5.00
2019-01-15T23:21:21.199Z,5.20
2019-01-15T23:24:17.267Z,4.90
2019-01-15T23:27:04.385Z,4.90
2019-01-15T23:29:53.669Z,4.90
2019-01-15T23:32:40.510Z,4.90
2019-01-15T23:35:36.878Z,4.90
2019-01-15T23:38:42.155Z,5.10
2019-01-15T23:41:19.563Z,5.00
2019-01-15T23:44:15.711Z,5.10
2019-01-15T23:47:14.515Z,5.00
2019-01-15T23:50:13.549Z,5.10
2019-01-15T23:52:59.353Z,5.00
2019-01-15T23:55:58.729Z,5.00
2019-01-15T23:58:38.354Z,5.20
